Terminal Aerodrome Forecast
Issued by NWS Boise, ID

Home | Current Version | Previous Version | Text Only | Print | Product List | Glossary On
Versions: 1 2 3 4 5 6 7 8 9 10 11 12 13 14 15
000
FTUS45 KBOI 211950 AAB
TAFBNO
TAF AMD
KBNO 211950Z 2120/2218 VRB03KT P6SM VCSH SCT015 OVC025
     FM220600 31006KT 2SM -SN BR OVC025
     FM221600 30006KT P6SM BKN040=

USA.gov is the U.S. government's official web portal to all federal, state and local government web resources and services.